createdAt,value
2022-10-01T00:03:07.738Z,12.71
2022-10-01T00:06:05.232Z,12.13
2022-10-01T00:08:53.506Z,11.18
2022-10-01T00:11:42.058Z,11.67
2022-10-01T00:14:30.053Z,12.34
2022-10-01T00:17:18.121Z,12.67
2022-10-01T00:20:14.065Z,12.20
2022-10-01T00:23:02.503Z,11.13
2022-10-01T00:25:52.462Z,11.52
2022-10-01T00:28:42.345Z,12.17
2022-10-01T00:31:30.826Z,12.52
2022-10-01T00:34:19.129Z,12.63
2022-10-01T00:37:09.710Z,12.87
2022-10-01T00:39:57.675Z,12.87
2022-10-01T00:42:46.100Z,11.87
2022-10-01T00:45:34.184Z,11.20
2022-10-01T00:48:24.569Z,11.85
2022-10-01T00:51:14.198Z,12.39
2022-10-01T00:54:10.684Z,12.70
2022-10-01T00:57:01.552Z,12.55
2022-10-01T00:59:51.939Z,11.47
2022-10-01T01:02:41.741Z,10.87
2022-10-01T01:05:30.013Z,11.51
2022-10-01T01:08:18.519Z,12.11
2022-10-01T01:11:23.316Z,12.50
2022-10-01T01:14:44.966Z,12.70
2022-10-01T01:17:42.188Z,12.72
2022-10-01T01:21:00.229Z,11.68
2022-10-01T01:24:30.849Z,10.97
2022-10-01T01:27:43.705Z,11.75
2022-10-01T01:30:33.137Z,12.23
2022-10-01T01:33:27.092Z,12.57
2022-10-01T01:36:25.731Z,12.74
2022-10-01T01:39:17.258Z,12.86
2022-10-01T01:42:14.736Z,12.85
2022-10-01T01:45:09.121Z,12.01
2022-10-01T01:48:00.779Z,10.86
2022-10-01T01:50:58.208Z,11.06
2022-10-01T01:53:46.183Z,11.68
2022-10-01T01:56:34.621Z,12.04
2022-10-01T01:59:22.802Z,12.12
2022-10-01T02:02:19.995Z,12.28
2022-10-01T02:05:13.499Z,12.33
2022-10-01T02:08:12.974Z,12.48
2022-10-01T02:11:38.335Z,12.48
2022-10-01T02:14:59.167Z,11.29
2022-10-01T02:18:48.429Z,10.72
2022-10-01T02:22:05.096Z,11.48
2022-10-01T02:25:00.091Z,11.90
2022-10-01T02:28:04.033Z,12.20
2022-10-01T02:30:55.497Z,12.40
2022-10-01T02:33:46.887Z,12.43
2022-10-01T02:36:37.984Z,12.57
2022-10-01T02:39:30.362Z,12.67
2022-10-01T02:42:21.984Z,12.73
2022-10-01T02:45:11.828Z,11.87
2022-10-01T02:48:08.945Z,10.94
2022-10-01T02:51:59.621Z,11.34
2022-10-01T02:55:24.545Z,11.86
2022-10-01T02:58:12.803Z,12.20
2022-10-01T03:01:00.620Z,12.30
2022-10-01T03:03:48.331Z,12.30
2022-10-01T03:06:36.332Z,12.30
2022-10-01T03:09:24.415Z,12.37
2022-10-01T03:12:12.481Z,12.45
2022-10-01T03:15:00.266Z,12.46
2022-10-01T03:17:53.167Z,11.65
2022-10-01T03:20:41.227Z,10.70
2022-10-01T03:23:29.353Z,11.16
2022-10-01T03:26:16.988Z,11.65
2022-10-01T03:29:06.447Z,11.82
2022-10-01T03:31:54.852Z,11.99
2022-10-01T03:34:42.538Z,12.19
2022-10-01T03:37:30.473Z,12.26
2022-10-01T03:40:18.166Z,12.24
2022-10-01T03:43:06.200Z,12.25
2022-10-01T03:45:54.260Z,12.39
2022-10-01T03:48:42.219Z,12.40
2022-10-01T03:51:31.154Z,12.22
2022-10-01T03:54:20.467Z,11.06
2022-10-01T03:57:08.138Z,10.39
2022-10-01T03:59:58.834Z,10.91
2022-10-01T04:02:46.668Z,11.40
2022-10-01T04:05:34.451Z,11.69
2022-10-01T04:08:24.461Z,11.88
2022-10-01T04:11:12.945Z,12.02
2022-10-01T04:14:00.960Z,12.13
2022-10-01T04:16:50.876Z,12.13
2022-10-01T04:19:38.670Z,12.15
2022-10-01T04:22:26.909Z,12.23
2022-10-01T04:25:15.414Z,12.18
2022-10-01T04:28:07.506Z,12.21
2022-10-01T04:31:15.546Z,12.21
2022-10-01T04:34:03.667Z,12.14
2022-10-01T04:36:51.483Z,12.23
2022-10-01T04:39:39.430Z,12.28
2022-10-01T04:42:27.375Z,12.42
2022-10-01T04:45:15.626Z,12.46
2022-10-01T04:48:03.642Z,12.43
2022-10-01T04:50:52.238Z,12.37
2022-10-01T04:53:40.168Z,12.40
2022-10-01T04:56:28.226Z,12.37
2022-10-01T04:59:16.235Z,12.43
2022-10-01T05:02:04.398Z,12.48
2022-10-01T05:04:52.202Z,12.52
2022-10-01T05:07:40.895Z,12.56
2022-10-01T05:10:28.956Z,12.42
2022-10-01T05:13:16.712Z,12.32
2022-10-01T05:16:04.865Z,12.31
2022-10-01T05:18:54.999Z,12.43
2022-10-01T05:21:43.339Z,12.54
2022-10-01T05:24:30.878Z,12.63
2022-10-01T05:27:19.699Z,12.78
2022-10-01T05:30:11.070Z,12.88
2022-10-01T05:33:02.217Z,12.98
2022-10-01T05:35:50.892Z,12.91
2022-10-01T05:38:39.113Z,11.96
2022-10-01T05:41:27.176Z,11.20
2022-10-01T05:44:14.967Z,11.75
2022-10-01T05:47:03.768Z,12.40
2022-10-01T05:49:51.397Z,12.80
2022-10-01T05:52:39.303Z,12.99
2022-10-01T05:55:37.615Z,13.23
2022-10-01T05:58:25.282Z,13.47
2022-10-01T06:01:13.959Z,13.27
2022-10-01T06:04:02.085Z,12.26
2022-10-01T06:06:49.771Z,11.67
2022-10-01T06:09:37.744Z,12.37
2022-10-01T06:12:32.690Z,13.07
2022-10-01T06:15:21.853Z,13.57
2022-10-01T06:18:11.694Z,13.75
2022-10-01T06:21:00.033Z,13.91
2022-10-01T06:23:52.565Z,13.85
2022-10-01T06:26:40.556Z,12.83
2022-10-01T06:29:28.580Z,11.97
2022-10-01T06:32:19.882Z,12.42
2022-10-01T06:35:07.860Z,13.14
2022-10-01T06:37:55.794Z,13.66
2022-10-01T06:40:44.350Z,14.09
2022-10-01T06:43:33.684Z,14.49
2022-10-01T06:46:21.720Z,14.78
2022-10-01T06:49:09.815Z,15.13
2022-10-01T06:52:16.108Z,16.34
2022-10-01T06:55:04.720Z,17.28
2022-10-01T06:57:58.722Z,18.94
2022-10-01T07:00:47.812Z,19.97
2022-10-01T07:03:36.267Z,20.78
2022-10-01T07:06:24.182Z,21.62
2022-10-01T07:09:12.008Z,22.21
2022-10-01T07:11:59.859Z,22.89
2022-10-01T07:14:48.303Z,23.48
2022-10-01T07:17:45.159Z,24.08
2022-10-01T07:20:36.200Z,24.54
2022-10-01T07:23:24.644Z,24.81
2022-10-01T07:26:12.666Z,24.89
2022-10-01T07:29:01.531Z,24.86
2022-10-01T07:31:50.999Z,24.80
2022-10-01T07:34:40.486Z,24.67
2022-10-01T07:37:28.348Z,24.66
2022-10-01T07:40:18.943Z,24.56
2022-10-01T07:43:07.125Z,24.54
2022-10-01T07:45:58.446Z,24.80
2022-10-01T07:48:49.634Z,25.22
2022-10-01T07:51:37.314Z,25.71
2022-10-01T07:54:26.264Z,26.13
2022-10-01T07:57:15.518Z,26.45
2022-10-01T08:00:03.474Z,26.81
2022-10-01T08:03:01.713Z,27.07
2022-10-01T08:05:49.969Z,27.25
2022-10-01T08:08:37.888Z,27.66
2022-10-01T08:11:25.772Z,27.87
2022-10-01T08:14:13.891Z,27.52
2022-10-01T08:17:04.071Z,27.21
2022-10-01T08:19:51.857Z,27.22
2022-10-01T08:22:42.700Z,27.56
2022-10-01T08:25:36.589Z,27.98
2022-10-01T08:28:31.538Z,28.33
2022-10-01T08:31:19.285Z,28.30
2022-10-01T08:34:08.248Z,28.20
2022-10-01T08:36:55.969Z,27.96
2022-10-01T08:39:44.148Z,27.87
2022-10-01T08:42:55.695Z,27.87
2022-10-01T08:46:00.660Z,28.02
2022-10-01T08:49:07.484Z,28.62
2022-10-01T08:52:30.909Z,28.84
2022-10-01T08:55:27.324Z,28.01
2022-10-01T08:58:26.223Z,27.50
2022-10-01T09:01:14.395Z,27.06
2022-10-01T09:04:02.415Z,27.11
2022-10-01T09:07:02.415Z,27.57
2022-10-01T09:10:17.343Z,28.05
2022-10-01T09:13:52.380Z,28.24
2022-10-01T09:17:21.401Z,27.98
2022-10-01T09:20:29.435Z,27.75
2022-10-01T09:23:29.039Z,27.77
2022-10-01T09:26:18.311Z,27.33
2022-10-01T09:29:17.217Z,26.77
2022-10-01T09:32:06.180Z,27.10
2022-10-01T09:34:55.007Z,27.53
2022-10-01T09:38:07.586Z,28.15
2022-10-01T09:40:58.631Z,28.37
2022-10-01T09:43:47.971Z,28.34
2022-10-01T09:46:35.988Z,28.53
2022-10-01T09:49:39.859Z,28.93
2022-10-01T09:52:35.263Z,29.28
2022-10-01T09:55:40.815Z,29.42
2022-10-01T09:58:30.313Z,29.37
2022-10-01T10:01:56.750Z,29.32
2022-10-01T10:04:44.816Z,29.50
2022-10-01T10:07:35.180Z,29.62
2022-10-01T10:10:29.865Z,29.44
2022-10-01T10:13:39.385Z,29.17
2022-10-01T10:16:37.831Z,28.90
2022-10-01T10:19:29.595Z,28.81
2022-10-01T10:22:28.588Z,28.71
2022-10-01T10:25:25.223Z,27.99
2022-10-01T10:28:25.773Z,26.92
2022-10-01T10:31:21.970Z,25.61
2022-10-01T10:34:31.992Z,24.43
2022-10-01T10:37:30.196Z,23.42
2022-10-01T10:40:29.502Z,22.73
2022-10-01T10:43:26.926Z,22.76
2022-10-01T10:46:29.799Z,23.48
2022-10-01T10:49:31.581Z,24.05
2022-10-01T10:52:37.895Z,23.63
2022-10-01T10:55:31.533Z,22.88
2022-10-01T10:58:19.387Z,22.46
2022-10-01T11:01:13.731Z,22.27
2022-10-01T11:04:02.122Z,21.79
2022-10-01T11:07:01.361Z,21.39
2022-10-01T11:10:13.475Z,21.38
2022-10-01T11:13:26.485Z,21.45
2022-10-01T11:16:36.362Z,21.91
2022-10-01T11:19:51.794Z,22.68
2022-10-01T11:23:20.972Z,23.14
2022-10-01T11:26:18.259Z,23.82
2022-10-01T11:29:50.776Z,24.21
2022-10-01T11:33:25.759Z,24.17
2022-10-01T11:36:19.891Z,23.80
2022-10-01T11:39:20.282Z,23.10
2022-10-01T11:42:24.809Z,22.23
2022-10-01T11:45:25.037Z,21.52
2022-10-01T11:48:47.297Z,20.99
2022-10-01T11:51:48.787Z,20.60
2022-10-01T11:54:56.184Z,20.44
2022-10-01T11:58:05.380Z,20.36
2022-10-01T12:01:42.468Z,20.24
2022-10-01T12:04:42.165Z,19.94
2022-10-01T12:07:39.650Z,19.87
2022-10-01T12:10:44.976Z,19.91
2022-10-01T12:13:42.967Z,19.72
2022-10-01T12:16:44.951Z,19.45
2022-10-01T12:19:41.817Z,19.22
2022-10-01T12:22:41.485Z,19.07
2022-10-01T12:25:47.104Z,18.95
2022-10-01T12:29:04.332Z,18.84
2022-10-01T12:32:00.721Z,18.70
2022-10-01T12:35:12.463Z,18.58
2022-10-01T12:38:19.859Z,18.49
2022-10-01T12:41:30.152Z,18.26
2022-10-01T12:44:49.389Z,18.08
2022-10-01T12:48:16.939Z,18.01
2022-10-01T12:51:53.189Z,17.84
2022-10-01T12:54:57.787Z,17.66
2022-10-01T12:58:22.231Z,17.49
2022-10-01T13:01:26.244Z,17.30
2022-10-01T13:04:40.557Z,17.10
2022-10-01T13:08:18.807Z,16.91
2022-10-01T13:11:42.320Z,16.68
2022-10-01T13:14:33.563Z,16.48
2022-10-01T13:17:54.907Z,16.40
2022-10-01T13:21:16.730Z,16.33
2022-10-01T13:24:32.415Z,16.30
2022-10-01T13:27:36.036Z,16.30
2022-10-01T13:30:28.025Z,16.33
2022-10-01T13:33:29.338Z,16.32
2022-10-01T13:36:29.313Z,16.32
2022-10-01T13:39:24.385Z,16.31
2022-10-01T13:42:44.739Z,16.28
2022-10-01T13:45:45.923Z,16.23
2022-10-01T13:48:36.703Z,16.19
2022-10-01T13:51:36.138Z,16.14
2022-10-01T13:54:33.089Z,16.11
2022-10-01T13:57:39.154Z,16.07
2022-10-01T14:00:27.524Z,16.04
2022-10-01T14:03:42.941Z,15.97
2022-10-01T14:06:36.922Z,15.87
2022-10-01T14:09:34.296Z,15.79
2022-10-01T14:13:04.706Z,15.70
2022-10-01T14:16:00.291Z,15.65
2022-10-01T14:18:49.941Z,15.58
2022-10-01T14:22:12.121Z,15.54
2022-10-01T14:25:23.748Z,15.51
2022-10-01T14:28:15.594Z,15.49
2022-10-01T14:31:11.425Z,15.46
2022-10-01T14:34:07.812Z,15.39
2022-10-01T14:36:56.978Z,15.32
2022-10-01T14:39:44.722Z,15.25
2022-10-01T14:42:32.564Z,15.18
2022-10-01T14:45:20.748Z,15.12
2022-10-01T14:48:10.496Z,15.04
2022-10-01T14:51:05.768Z,15.31
2022-10-01T14:53:56.838Z,16.71
2022-10-01T14:56:44.690Z,17.44
2022-10-01T14:59:40.047Z,16.80
2022-10-01T15:02:29.320Z,16.25
2022-10-01T15:05:33.578Z,15.82
2022-10-01T15:08:39.273Z,15.48
2022-10-01T15:11:31.117Z,15.33
2022-10-01T15:14:25.736Z,16.34
2022-10-01T15:17:23.929Z,17.10
2022-10-01T15:20:13.570Z,16.54
2022-10-01T15:23:01.925Z,15.94
2022-10-01T15:25:50.687Z,15.49
2022-10-01T15:28:38.379Z,15.41
2022-10-01T15:31:26.337Z,16.48
2022-10-01T15:34:18.040Z,17.09
2022-10-01T15:37:05.972Z,16.40
2022-10-01T15:39:54.763Z,15.73
2022-10-01T15:43:07.826Z,15.25
2022-10-01T15:46:16.818Z,15.33
2022-10-01T15:49:31.226Z,16.66
2022-10-01T15:52:37.680Z,17.56
2022-10-01T15:55:53.400Z,17.19
2022-10-01T15:58:52.724Z,16.13
2022-10-01T16:01:41.347Z,15.46
2022-10-01T16:04:29.165Z,15.73
2022-10-01T16:07:26.374Z,16.82
2022-10-01T16:10:36.955Z,17.12
2022-10-01T16:13:38.773Z,16.21
2022-10-01T16:16:30.069Z,15.56
2022-10-01T16:19:28.478Z,16.42
2022-10-01T16:22:19.413Z,17.23
2022-10-01T16:25:32.154Z,17.00
2022-10-01T16:28:31.187Z,15.90
2022-10-01T16:31:19.391Z,15.15
2022-10-01T16:34:17.027Z,15.63
2022-10-01T16:37:07.058Z,16.71
2022-10-01T16:39:57.221Z,17.07
2022-10-01T16:42:46.381Z,16.17
2022-10-01T16:45:39.009Z,15.54
2022-10-01T16:48:26.978Z,16.32
2022-10-01T16:51:15.088Z,17.08
2022-10-01T16:54:03.851Z,16.70
2022-10-01T16:56:53.855Z,15.70
2022-10-01T16:59:42.720Z,15.23
2022-10-01T17:02:30.729Z,16.09
2022-10-01T17:05:25.620Z,16.85
2022-10-01T17:08:15.419Z,17.07
2022-10-01T17:11:04.759Z,16.10
2022-10-01T17:13:52.833Z,15.25
2022-10-01T17:16:40.924Z,15.03
2022-10-01T17:19:29.584Z,16.06
2022-10-01T17:22:18.128Z,16.56
2022-10-01T17:25:08.078Z,15.69
2022-10-01T17:27:56.112Z,15.07
2022-10-01T17:30:46.810Z,15.73
2022-10-01T17:33:34.880Z,16.56
2022-10-01T17:36:23.071Z,16.99
2022-10-01T17:39:10.751Z,16.30
2022-10-01T17:41:58.785Z,15.38
2022-10-01T17:44:46.768Z,15.51
2022-10-01T17:47:35.466Z,16.34
2022-10-01T17:50:23.963Z,17.03
2022-10-01T17:53:13.056Z,16.35
2022-10-01T17:56:16.295Z,15.30
2022-10-01T17:59:04.281Z,15.62
2022-10-01T18:01:53.322Z,16.52
2022-10-01T18:04:43.672Z,17.07
2022-10-01T18:07:31.754Z,16.18
2022-10-01T18:10:19.796Z,15.22
2022-10-01T18:13:07.639Z,15.39
2022-10-01T18:16:05.847Z,16.24
2022-10-01T18:22:13.649Z,17.16
2022-10-01T18:25:03.747Z,17.42
2022-10-01T18:27:51.431Z,17.15
2022-10-01T18:30:39.178Z,16.13
2022-10-01T18:33:27.080Z,16.37
2022-10-01T18:36:39.231Z,16.85
2022-10-01T18:39:48.025Z,16.90
2022-10-01T18:42:57.942Z,15.74
2022-10-01T18:46:53.055Z,15.70
2022-10-01T18:50:03.409Z,16.43
2022-10-01T18:53:20.887Z,16.75
2022-10-01T18:56:34.255Z,16.89
2022-10-01T19:00:08.681Z,16.74
2022-10-01T19:03:15.411Z,15.45
2022-10-01T19:06:30.901Z,15.55
2022-10-01T19:09:54.411Z,16.17
2022-10-01T19:13:07.899Z,16.42
2022-10-01T19:16:07.096Z,16.63
2022-10-01T19:19:17.014Z,16.55
2022-10-01T19:22:45.442Z,15.55
2022-10-01T19:25:51.609Z,15.81
2022-10-01T19:29:12.899Z,16.35
2022-10-01T19:32:07.614Z,17.57
2022-10-01T19:35:13.689Z,18.68
2022-10-01T19:38:13.712Z,18.16
2022-10-01T19:41:13.314Z,16.31
2022-10-01T19:44:09.317Z,14.95
2022-10-01T19:47:13.818Z,14.91
2022-10-01T19:50:12.676Z,15.73
2022-10-01T19:53:03.468Z,16.12
2022-10-01T19:55:53.070Z,16.18
2022-10-01T19:58:41.499Z,15.19
2022-10-01T20:01:39.448Z,14.11
2022-10-01T20:05:05.322Z,14.11
2022-10-01T20:08:25.132Z,15.58
2022-10-01T20:11:29.943Z,15.64
2022-10-01T20:15:03.483Z,14.47
2022-10-01T20:18:34.584Z,14.03
2022-10-01T20:21:44.073Z,14.97
2022-10-01T20:24:49.335Z,15.48
2022-10-01T20:28:12.355Z,15.80
2022-10-01T20:31:35.061Z,15.34
2022-10-01T20:34:48.319Z,13.99
2022-10-01T20:37:52.118Z,13.57
2022-10-01T20:40:43.339Z,14.40
2022-10-01T20:43:50.395Z,14.93
2022-10-01T20:46:50.682Z,15.25
2022-10-01T20:49:56.734Z,15.56
2022-10-01T20:53:04.022Z,15.41
2022-10-01T20:56:06.127Z,14.25
2022-10-01T20:59:23.755Z,13.75
2022-10-01T21:02:24.992Z,14.53
2022-10-01T21:05:27.120Z,14.96
2022-10-01T21:08:34.644Z,15.32
2022-10-01T21:11:36.118Z,15.41
2022-10-01T21:14:52.898Z,15.56
2022-10-01T21:17:43.546Z,15.55
2022-10-01T21:21:02.032Z,15.67
2022-10-01T21:24:32.870Z,14.88
2022-10-01T21:28:04.196Z,14.13
2022-10-01T21:31:25.377Z,14.87
2022-10-01T21:34:28.778Z,15.26
2022-10-01T21:37:41.693Z,15.45
2022-10-01T21:40:54.595Z,15.61
2022-10-01T21:44:19.860Z,15.70
2022-10-01T21:47:38.354Z,15.86
2022-10-01T21:50:49.138Z,16.05
2022-10-01T21:54:08.787Z,16.11
2022-10-01T21:57:33.537Z,15.54
2022-10-01T22:00:28.846Z,14.28
2022-10-01T22:03:36.352Z,14.73
2022-10-01T22:06:37.066Z,15.26
2022-10-01T22:09:36.119Z,15.67
2022-10-01T22:12:29.205Z,16.00
2022-10-01T22:15:40.596Z,15.92
2022-10-01T22:19:04.331Z,16.15
2022-10-01T22:22:03.203Z,16.09
2022-10-01T22:24:54.670Z,16.21
2022-10-01T22:28:08.573Z,16.24
2022-10-01T22:31:03.288Z,15.48
2022-10-01T22:34:17.615Z,14.62
2022-10-01T22:37:26.953Z,15.17
2022-10-01T22:40:23.496Z,15.71
2022-10-01T22:43:14.391Z,16.05
2022-10-01T22:46:24.823Z,16.08
2022-10-01T22:49:58.482Z,16.25
2022-10-01T22:53:26.428Z,16.35
2022-10-01T22:56:23.817Z,16.39
2022-10-01T22:59:23.651Z,15.78
2022-10-01T23:02:53.229Z,14.60
2022-10-01T23:06:05.805Z,14.85
2022-10-01T23:09:26.846Z,15.36
2022-10-01T23:12:37.889Z,15.77
2022-10-01T23:16:09.710Z,15.95
2022-10-01T23:19:28.009Z,16.06
2022-10-01T23:23:01.730Z,16.07
2022-10-01T23:26:25.095Z,16.16
2022-10-01T23:29:41.260Z,16.28
2022-10-01T23:32:47.960Z,16.26
2022-10-01T23:35:57.512Z,16.26
2022-10-01T23:39:19.593Z,16.29
2022-10-01T23:42:48.429Z,16.34
2022-10-01T23:45:51.194Z,15.95
2022-10-01T23:49:01.028Z,14.67
2022-10-01T23:52:19.599Z,14.62
2022-10-01T23:55:38.622Z,15.35
2022-10-01T23:58:30.289Z,15.70
